Time;durP1;ratioP1;P1;durP2;ratioP2;P2;SDS_P1;SDS_P2;PMS_P1;PMS_P2;Temp;Humidity;BMP_temperature;BMP_pressure;BME280_temperature;BME280_humidity;BME280_pressure;Samples;Min_cycle;Max_cycle;Signal;HPM_P1;HPM_P2
2022/03/21 00:00:41;;;;;;;105.97;65.90;;;1.40;99.90;;;;;;4977146;28;39277;-76
2022/03/21 00:03:09;;;;;;;115.83;70.13;;;1.40;99.90;;;;;;4975807;28;39007;-75
2022/03/21 00:05:36;;;;;;;130.57;73.10;;;1.30;99.90;;;;;;4961786;28;38315;-75
2022/03/21 00:08:03;;;;;;;113.30;69.13;;;1.20;99.90;;;;;;4955798;28;36593;-75
2022/03/21 00:10:36;;;;;;;111.77;66.90;;;1.20;99.90;;;;;;4962295;28;39938;-76
2022/03/21 00:13:02;;;;;;;;;;;1.20;99.90;;;;;;4975812;28;38885;-75
2022/03/21 00:15:33;;;;;;;133.07;72.73;;;1.10;99.90;;;;;;4958281;28;38343;-75
2022/03/21 00:18:01;;;;;;;109.57;67.67;;;1.10;99.90;;;;;;4960302;28;37230;-75
2022/03/21 00:20:29;;;;;;;107.43;65.23;;;0.90;99.90;;;;;;4965034;28;48763;-75
2022/03/21 00:22:56;;;;;;;128.77;73.63;;;0.90;99.90;;;;;;4972241;28;38333;-75
2022/03/21 00:25:22;;;;;;;125.00;70.23;;;0.80;99.90;;;;;;4954642;28;38621;-74
2022/03/21 00:27:48;;;;;;;117.13;68.27;;;0.80;99.90;;;;;;4957816;28;36746;-75
2022/03/21 00:30:15;;;;;;;99.37;62.83;;;0.70;99.90;;;;;;4958129;28;38938;-74
2022/03/21 00:32:44;;;;;;;113.60;67.20;;;0.70;99.90;;;;;;4957329;28;38760;-74
2022/03/21 00:35:17;;;;;;;105.57;65.40;;;0.70;99.90;;;;;;4961011;28;38428;-75
2022/03/21 00:37:47;;;;;;;104.63;63.73;;;0.60;99.90;;;;;;4960284;28;38256;-75
2022/03/21 00:40:17;;;;;;;120.80;71.97;;;0.50;99.90;;;;;;4959294;28;40026;-75
2022/03/21 00:42:46;;;;;;;105.27;63.23;;;0.50;99.90;;;;;;4959937;28;38304;-75
2022/03/21 00:45:21;;;;;;;108.47;65.57;;;0.50;99.90;;;;;;4962951;28;37624;-74
2022/03/21 00:47:49;;;;;;;121.57;69.83;;;0.50;99.90;;;;;;4957201;28;37460;-75
2022/03/21 00:50:17;;;;;;;102.17;63.80;;;0.40;99.90;;;;;;4976611;28;38852;-75
2022/03/21 00:52:49;;;;;;;113.73;65.93;;;0.40;99.90;;;;;;4964256;28;37745;-75
2022/03/21 00:55:18;;;;;;;106.93;65.32;;;0.40;99.90;;;;;;4966095;28;39137;-75
2022/03/21 00:57:44;;;;;;;95.87;60.97;;;0.30;99.90;;;;;;4976516;28;37684;-75
2022/03/21 01:00:14;;;;;;;111.50;66.07;;;0.30;99.90;;;;;;4981533;28;39708;-75
2022/03/21 01:02:41;;;;;;;116.50;67.10;;;0.30;99.90;;;;;;4985178;28;38979;-75
2022/03/21 01:05:08;;;;;;;114.90;67.67;;;0.20;99.90;;;;;;4965809;28;38374;-75
2022/03/21 01:07:36;;;;;;;111.97;67.27;;;0.20;99.90;;;;;;4984299;28;37805;-75
2022/03/21 01:10:04;;;;;;;109.53;65.00;;;0.20;99.90;;;;;;4966546;28;39655;-76
2022/03/21 01:12:30;;;;;;;106.53;62.00;;;0.10;99.90;;;;;;4983949;28;38702;-76
2022/03/21 01:14:57;;;;;;;102.17;63.03;;;0.20;99.90;;;;;;4984052;28;38503;-75
2022/03/21 01:17:24;;;;;;;105.63;64.67;;;0.20;99.90;;;;;;4984054;28;37167;-76
2022/03/21 01:19:50;;;;;;;101.97;61.03;;;0.20;99.90;;;;;;4981340;28;38344;-75
2022/03/21 01:22:16;;;;;;;112.03;63.47;;;0.10;99.90;;;;;;4968776;28;37237;-75
2022/03/21 01:24:42;;;;;;;118.00;66.97;;;0.20;99.90;;;;;;4979259;28;39531;-75
2022/03/21 01:27:09;;;;;;;101.27;62.30;;;0.20;99.90;;;;;;4979806;28;38444;-78
2022/03/21 01:29:35;;;;;;;108.83;61.37;;;0.10;99.90;;;;;;4963378;28;39585;-77
2022/03/21 01:32:02;;;;;;;110.60;62.70;;;0.10;99.90;;;;;;4985098;28;39518;-77
2022/03/21 01:34:28;;;;;;;107.10;61.67;;;0.00;99.90;;;;;;4981477;28;39708;-77
2022/03/21 01:36:57;;;;;;;110.70;63.60;;;0.00;99.90;;;;;;4983038;28;38380;-77
2022/03/21 01:39:24;;;;;;;107.60;62.63;;;0.00;99.90;;;;;;4980787;28;38496;-77
2022/03/21 01:41:53;;;;;;;107.03;63.00;;;0.00;99.90;;;;;;4985516;28;38660;-77
2022/03/21 01:44:20;;;;;;;106.97;63.17;;;0.00;99.90;;;;;;4980982;28;38898;-77
2022/03/21 01:46:49;;;;;;;108.23;64.87;;;0.00;99.90;;;;;;4970434;28;39171;-77
2022/03/21 01:49:17;;;;;;;109.90;61.73;;;0.00;99.90;;;;;;4983127;28;39009;-77
2022/03/21 01:51:44;;;;;;;112.10;64.00;;;0.00;99.90;;;;;;4957007;28;38572;-77
2022/03/21 01:56:59;;;;;;;110.83;64.97;;;-0.20;99.90;;;;;;4983399;28;38896;-77
2022/03/21 01:59:30;;;;;;;108.80;62.17;;;-0.20;99.90;;;;;;4984043;28;38607;-77
2022/03/21 02:01:59;;;;;;;121.57;67.13;;;-0.20;99.90;;;;;;4978771;28;39438;-77
2022/03/21 02:04:25;;;;;;;115.70;63.53;;;-0.30;99.90;;;;;;4972025;28;39759;-77
2022/03/21 02:06:54;;;;;;;125.83;70.43;;;-0.30;99.90;;;;;;4982171;28;37980;-76
2022/03/21 02:09:20;;;;;;;123.97;70.10;;;-0.30;99.90;;;;;;4961321;28;40496;-77
2022/03/21 02:11:47;;;;;;;130.27;71.17;;;-0.40;99.90;;;;;;4956685;28;37930;-77
2022/03/21 02:14:13;;;;;;;130.70;71.83;;;-0.40;99.90;;;;;;4978176;28;38746;-77
2022/03/21 02:16:40;;;;;;;102.30;62.33;;;-0.30;99.90;;;;;;4972990;28;38647;-77
2022/03/21 02:19:26;;;;;;;103.27;62.97;;;-0.20;99.90;;;;;;4964659;28;38169;-77
2022/03/21 02:22:29;;;;;;;103.87;61.43;;;-0.30;99.90;;;;;;4973095;28;38040;-77
2022/03/21 02:25:14;;;;;;;110.28;64.00;;;-0.30;99.90;;;;;;4985282;28;47557;-77
2022/03/21 02:27:41;;;;;;;107.90;62.93;;;-0.40;99.90;;;;;;4971716;28;48081;-77
2022/03/21 02:30:08;;;;;;;110.97;64.63;;;-0.40;99.90;;;;;;4980129;28;39586;-77
2022/03/21 02:32:35;;;;;;;106.07;64.20;;;-0.30;99.90;;;;;;4980951;28;38965;-77
2022/03/21 02:35:02;;;;;;;111.43;62.40;;;-0.40;99.90;;;;;;4981199;28;38126;-77
2022/03/21 02:37:29;;;;;;;114.33;67.63;;;-0.30;99.90;;;;;;4977616;28;47044;-77
2022/03/21 02:39:58;;;;;;;117.47;68.00;;;-0.40;99.90;;;;;;4951521;28;40162;-77
2022/03/21 02:42:24;;;;;;;116.63;66.47;;;-0.50;99.90;;;;;;4967680;28;39109;-77
2022/03/21 02:44:51;;;;;;;111.73;65.00;;;-0.50;99.90;;;;;;4974355;28;38154;-77
2022/03/21 02:47:17;;;;;;;104.90;61.17;;;-0.50;99.90;;;;;;4968076;28;38775;-77
2022/03/21 02:49:43;;;;;;;112.83;63.83;;;-0.50;99.90;;;;;;4976390;28;38724;-77
2022/03/21 02:52:11;;;;;;;119.10;65.23;;;-0.50;99.90;;;;;;4964208;28;38451;-76
2022/03/21 02:54:37;;;;;;;112.10;62.60;;;-0.50;99.90;;;;;;4984601;28;38315;-77
2022/03/21 02:57:03;;;;;;;106.20;61.17;;;-0.50;99.90;;;;;;4980785;28;38244;-77
2022/03/21 02:59:30;;;;;;;97.77;58.00;;;-0.50;99.90;;;;;;4983132;28;38948;-77
2022/03/21 03:01:56;;;;;;;106.50;63.67;;;-0.60;99.90;;;;;;4963750;28;39034;-77
2022/03/21 03:04:23;;;;;;;115.40;65.63;;;-0.60;99.90;;;;;;4982905;28;39207;-77
2022/03/21 03:06:50;;;;;;;99.17;59.27;;;-0.60;99.90;;;;;;4964925;28;36789;-76
2022/03/21 03:09:17;;;;;;;99.00;60.83;;;-0.60;99.90;;;;;;4982580;28;38318;-77
2022/03/21 03:11:43;;;;;;;108.33;63.80;;;-0.60;99.90;;;;;;4981434;28;39895;-76
2022/03/21 03:14:09;;;;;;;113.27;63.80;;;-0.50;99.90;;;;;;4968274;28;36795;-76
2022/03/21 03:16:36;;;;;;;111.87;64.70;;;-0.50;99.90;;;;;;4980053;28;37617;-76
2022/03/21 03:19:03;;;;;;;116.60;66.93;;;-0.60;99.90;;;;;;4976151;28;39233;-76
2022/03/21 03:21:35;;;;;;;116.10;64.40;;;-0.70;99.90;;;;;;4980334;28;37363;-76
2022/03/21 03:24:03;;;;;;;88.40;51.10;;;-0.70;99.90;;;;;;4979080;28;38407;-76
2022/03/21 03:26:29;;;;;;;107.20;61.13;;;-0.80;99.90;;;;;;4983900;28;48893;-75
2022/03/21 03:28:56;;;;;;;105.00;60.90;;;-0.70;99.90;;;;;;4979767;28;39112;-75
2022/03/21 03:31:22;;;;;;;113.93;64.80;;;-0.70;99.90;;;;;;4963546;28;38278;-75
2022/03/21 03:33:48;;;;;;;105.80;60.60;;;-0.70;99.90;;;;;;4962753;28;37158;-75
2022/03/21 03:36:15;;;;;;;103.33;61.07;;;-0.70;99.90;;;;;;4981267;28;38920;-76
2022/03/21 03:38:43;;;;;;;103.97;60.17;;;-0.80;99.90;;;;;;4977272;28;39108;-76
2022/03/21 03:41:09;;;;;;;104.30;61.97;;;-0.80;99.90;;;;;;4981959;28;39006;-75
2022/03/21 03:43:37;;;;;;;95.10;58.57;;;-0.80;99.90;;;;;;4980629;28;39076;-75
2022/03/21 03:46:04;;;;;;;107.90;62.80;;;-0.90;99.90;;;;;;4978569;28;39483;-76
2022/03/21 03:48:31;;;;;;;101.37;60.00;;;-0.90;99.90;;;;;;4981068;28;38443;-75
2022/03/21 03:50:57;;;;;;;105.63;61.07;;;-1.00;99.90;;;;;;4985030;28;38450;-75
2022/03/21 03:53:26;;;;;;;110.90;63.30;;;-1.00;99.90;;;;;;4966574;28;38647;-74
2022/03/21 03:55:52;;;;;;;102.13;59.60;;;-1.00;99.90;;;;;;4983792;28;37759;-75
2022/03/21 03:58:18;;;;;;;105.30;59.87;;;-1.00;99.90;;;;;;4981625;28;39011;-76
2022/03/21 04:00:49;;;;;;;119.63;65.30;;;-1.00;99.90;;;;;;4966361;28;38883;-76
2022/03/21 04:06:03;;;;;;;114.27;65.63;;;-1.00;99.90;;;;;;4976669;28;38823;-77
2022/03/21 04:08:29;;;;;;;119.73;66.47;;;-0.90;99.90;;;;;;4971150;28;38707;-77
2022/03/21 04:10:55;;;;;;;113.60;66.77;;;-0.90;99.90;;;;;;4979807;28;37762;-77
2022/03/21 04:13:21;;;;;;;124.20;67.47;;;-0.80;99.90;;;;;;4978869;28;37972;-76
2022/03/21 04:15:47;;;;;;;111.03;64.47;;;-0.60;99.90;;;;;;4958907;28;38169;-76
2022/03/21 04:18:13;;;;;;;119.13;66.27;;;-0.50;99.90;;;;;;4963443;28;39213;-76
2022/03/21 04:20:40;;;;;;;125.83;70.13;;;-0.50;99.90;;;;;;4979250;28;38620;-77
2022/03/21 04:23:07;;;;;;;106.17;63.23;;;-0.50;99.90;;;;;;4978540;28;38809;-77
2022/03/21 04:25:33;;;;;;;126.37;73.20;;;-0.50;99.90;;;;;;4979025;28;38645;-77
2022/03/21 04:28:06;;;;;;;118.03;67.93;;;-0.40;99.90;;;;;;4984950;28;38721;-77
2022/03/21 04:30:32;;;;;;;121.20;68.57;;;-0.30;99.90;;;;;;4977177;28;48262;-77
2022/03/21 04:32:58;;;;;;;126.53;71.70;;;-0.40;99.90;;;;;;4967091;28;36213;-77
2022/03/21 04:35:24;;;;;;;111.20;65.03;;;-0.30;99.90;;;;;;4981997;28;37425;-76
2022/03/21 04:37:54;;;;;;;113.60;64.77;;;-0.40;99.90;;;;;;4978648;28;38813;-77
2022/03/21 04:40:23;;;;;;;122.47;68.03;;;-0.40;99.90;;;;;;4979773;28;38323;-77
2022/03/21 04:42:50;;;;;;;118.87;67.80;;;-0.40;99.90;;;;;;4978486;28;39491;-77
2022/03/21 04:45:19;;;;;;;117.20;67.10;;;-0.30;99.90;;;;;;4983986;28;37741;-78
2022/03/21 04:47:45;;;;;;;126.10;71.10;;;-0.30;99.90;;;;;;4981793;28;38856;-77
2022/03/21 04:50:13;;;;;;;123.27;71.77;;;-0.40;99.90;;;;;;4985561;28;38387;-77
2022/03/21 04:52:42;;;;;;;122.07;68.63;;;-0.40;99.90;;;;;;4985003;28;37880;-77
2022/03/21 04:55:08;;;;;;;121.60;70.97;;;-0.40;99.90;;;;;;4980991;28;38229;-77
2022/03/21 04:57:35;;;;;;;106.67;61.97;;;-0.40;99.90;;;;;;4967516;28;41338;-77
2022/03/21 05:00:03;;;;;;;120.93;69.03;;;-0.50;99.90;;;;;;4976389;28;38744;-77
2022/03/21 05:02:29;;;;;;;120.67;69.77;;;-0.50;99.90;;;;;;4983526;28;38978;-77
2022/03/21 05:04:56;;;;;;;118.80;68.40;;;-0.60;99.90;;;;;;4982495;28;37861;-77
2022/03/21 05:07:22;;;;;;;125.23;71.17;;;-0.60;99.90;;;;;;4965912;28;39242;-77
2022/03/21 05:09:48;;;;;;;132.13;71.57;;;-0.60;99.90;;;;;;4970971;28;39499;-77
2022/03/21 05:12:14;;;;;;;135.63;73.73;;;-0.60;99.90;;;;;;4965616;28;38027;-77
2022/03/21 05:14:40;;;;;;;137.80;75.03;;;-0.60;99.90;;;;;;4973994;28;37237;-78
2022/03/21 05:17:09;;;;;;;130.13;73.90;;;-0.50;99.90;;;;;;4980193;28;40454;-77
2022/03/21 05:19:36;;;;;;;116.17;69.27;;;-0.50;99.90;;;;;;4975660;28;39190;-77
2022/03/21 05:22:06;;;;;;;119.00;68.43;;;-0.50;99.90;;;;;;4983300;28;38327;-76
2022/03/21 05:35:57;;;;;;;125.70;69.13;;;-0.60;99.90;;;;;;4979327;28;49485;-77
2022/03/21 05:38:25;;;;;;;148.10;79.60;;;-0.60;99.90;;;;;;4975064;28;39517;-77
2022/03/21 05:40:52;;;;;;;128.07;71.67;;;-0.70;99.90;;;;;;4979292;28;39159;-77
2022/03/21 05:43:19;;;;;;;121.37;73.00;;;-0.70;99.90;;;;;;4982473;28;38326;-77
2022/03/21 05:45:46;;;;;;;116.30;69.00;;;-0.70;99.90;;;;;;4978220;28;37570;-77
2022/03/21 05:50:57;;;;;;;144.83;74.73;;;-0.70;99.90;;;;;;4976135;28;39110;-77
2022/03/21 05:53:23;;;;;;;130.03;74.27;;;-0.70;99.90;;;;;;4978948;28;37708;-77
2022/03/21 05:55:49;;;;;;;118.60;70.03;;;-0.70;99.90;;;;;;4983498;28;37629;-76
2022/03/21 05:58:15;;;;;;;136.10;73.20;;;-0.70;99.90;;;;;;4960206;28;40022;-78
2022/03/21 06:00:42;;;;;;;121.50;69.37;;;-0.70;99.90;;;;;;4974193;28;38615;-78
2022/03/21 06:03:09;;;;;;;130.70;74.97;;;-0.60;99.90;;;;;;4975338;28;38056;-79
2022/03/21 06:05:35;;;;;;;129.63;72.53;;;-0.60;99.90;;;;;;4963374;28;37527;-78
2022/03/21 06:08:01;;;;;;;144.00;82.13;;;-0.50;99.90;;;;;;4961360;28;40463;-79
2022/03/21 06:10:29;;;;;;;136.47;76.83;;;-0.50;99.90;;;;;;4978606;28;37260;-78
2022/03/21 06:12:55;;;;;;;153.00;81.20;;;-0.50;99.90;;;;;;4981891;28;38054;-78
2022/03/21 06:15:22;;;;;;;125.93;70.30;;;-0.50;99.90;;;;;;4951199;28;38133;-78
2022/03/21 06:17:48;;;;;;;131.93;74.67;;;-0.50;99.90;;;;;;4966379;28;39960;-78
2022/03/21 06:20:16;;;;;;;133.57;75.10;;;-0.50;99.90;;;;;;4975529;28;39176;-78
2022/03/21 06:22:43;;;;;;;154.40;81.63;;;-0.50;99.90;;;;;;4976781;28;38740;-78
2022/03/21 06:25:10;;;;;;;141.93;77.27;;;-0.50;99.90;;;;;;4974545;28;35133;-78
2022/03/21 06:27:39;;;;;;;130.03;74.57;;;-0.50;99.90;;;;;;4976791;28;38773;-78
2022/03/21 06:30:08;;;;;;;141.83;79.87;;;-0.40;99.90;;;;;;4977283;28;38913;-78
2022/03/21 06:32:36;;;;;;;135.13;77.33;;;-0.40;99.90;;;;;;4975888;28;38307;-79
2022/03/21 06:35:04;;;;;;;138.80;77.20;;;-0.40;99.90;;;;;;4980954;28;36362;-78
2022/03/21 06:37:33;;;;;;;133.13;76.03;;;-0.30;99.90;;;;;;4979325;28;38953;-78
2022/03/21 06:40:00;;;;;;;149.20;81.77;;;-0.30;99.90;;;;;;4958489;28;39470;-78
2022/03/21 06:42:26;;;;;;;143.57;78.90;;;-0.20;99.90;;;;;;4975804;28;39011;-78
2022/03/21 06:44:53;;;;;;;147.27;85.47;;;-0.20;99.90;;;;;;4963756;28;37858;-78
2022/03/21 06:47:19;;;;;;;146.40;80.87;;;-0.10;99.90;;;;;;4985479;28;39421;-78
2022/03/21 06:49:46;;;;;;;159.00;84.47;;;-0.10;99.90;;;;;;4981258;28;38533;-78
2022/03/21 06:52:12;;;;;;;142.53;80.30;;;0.00;99.90;;;;;;4982326;28;38716;-79
2022/03/21 06:54:39;;;;;;;152.53;85.67;;;0.10;99.90;;;;;;4981256;28;37656;-79
2022/03/21 06:57:05;;;;;;;146.10;81.53;;;0.30;99.90;;;;;;4976451;28;39839;-78
2022/03/21 06:59:34;;;;;;;165.50;90.33;;;0.40;99.90;;;;;;4977838;28;38910;-76
2022/03/21 07:02:01;;;;;;;143.53;80.70;;;0.40;99.90;;;;;;4983195;28;38802;-78
2022/03/21 07:04:27;;;;;;;155.43;85.13;;;0.50;99.90;;;;;;4960451;28;46290;-76
2022/03/21 07:06:53;;;;;;;162.53;91.63;;;0.60;99.90;;;;;;4967710;28;39832;-76
2022/03/21 07:09:21;;;;;;;141.13;83.73;;;0.70;99.90;;;;;;4979110;28;39442;-77
2022/03/21 07:11:47;;;;;;;152.60;85.97;;;0.80;99.90;;;;;;4978391;28;39281;-76
2022/03/21 07:14:13;;;;;;;148.67;86.80;;;0.90;99.90;;;;;;4983616;28;38775;-76
2022/03/21 07:16:39;;;;;;;151.83;87.53;;;1.00;99.90;;;;;;4963569;28;39996;-76
2022/03/21 07:19:06;;;;;;;152.93;91.20;;;1.10;99.90;;;;;;4981845;28;39033;-76
2022/03/21 07:21:33;;;;;;;163.53;92.97;;;1.20;99.90;;;;;;4978399;28;38436;-77
2022/03/21 07:23:59;;;;;;;142.73;83.43;;;1.20;99.90;;;;;;4980060;28;36469;-76
2022/03/21 07:26:25;;;;;;;136.33;82.60;;;1.30;99.90;;;;;;4982102;28;39601;-76
2022/03/21 07:28:51;;;;;;;161.20;91.07;;;1.50;99.90;;;;;;4960428;28;39827;-76
2022/03/21 07:31:17;;;;;;;149.33;88.77;;;1.60;99.90;;;;;;4965544;28;38470;-76
2022/03/21 07:33:44;;;;;;;152.87;85.97;;;1.60;99.90;;;;;;4964740;28;38001;-76
2022/03/21 07:36:10;;;;;;;138.30;84.10;;;1.70;99.90;;;;;;4985164;28;39839;-76
2022/03/21 07:38:37;;;;;;;149.63;87.13;;;1.80;99.90;;;;;;4985228;28;37027;-76
2022/03/21 07:41:08;;;;;;;143.50;85.93;;;1.80;99.90;;;;;;4983823;28;39157;-76
2022/03/21 07:43:35;;;;;;;139.90;85.03;;;2.00;99.90;;;;;;4982831;28;37705;-77
2022/03/21 07:48:46;;;;;;;140.47;84.70;;;2.30;99.90;;;;;;4981447;28;49355;-77
2022/03/21 07:51:12;;;;;;;139.00;83.77;;;2.40;99.90;;;;;;4966456;28;38739;-78
2022/03/21 07:53:38;;;;;;;137.23;87.50;;;2.70;99.90;;;;;;4983721;28;37975;-78
2022/03/21 07:56:05;;;;;;;147.57;87.30;;;2.80;99.90;;;;;;4965230;28;39095;-78
2022/03/21 07:58:31;;;;;;;151.17;93.90;;;2.90;99.90;;;;;;4978147;28;36974;-78
2022/03/21 08:01:01;;;;;;;161.03;93.57;;;3.00;99.90;;;;;;4950146;28;40071;-77
2022/03/21 08:03:28;;;;;;;146.93;86.87;;;3.10;99.90;;;;;;4981393;28;47585;-77
2022/03/21 08:05:57;;;;;;;135.83;82.70;;;3.20;99.90;;;;;;4984599;28;37602;-77
2022/03/21 08:08:23;;;;;;;132.00;79.23;;;3.30;99.90;;;;;;4970327;28;38004;-78
2022/03/21 08:10:49;;;;;;;124.53;76.73;;;3.50;99.90;;;;;;4976326;28;37276;-78
2022/03/21 08:13:19;;;;;;;116.20;74.50;;;3.60;99.90;;;;;;4983825;28;38019;-78
2022/03/21 08:15:48;;;;;;;122.83;75.93;;;3.90;99.90;;;;;;4972359;28;38582;-80
2022/03/21 08:18:15;;;;;;;111.77;70.00;;;4.10;99.90;;;;;;4975019;28;37296;-83
2022/03/21 08:20:43;;;;;;;105.93;69.87;;;4.40;99.90;;;;;;4992709;28;39231;-84
2022/03/21 08:23:12;;;;;;;101.93;67.43;;;4.70;99.90;;;;;;4981127;28;37556;-84
2022/03/21 08:25:39;;;;;;;102.60;65.00;;;4.80;99.90;;;;;;4996258;28;37809;-84
2022/03/21 08:28:07;;;;;;;92.03;60.37;;;5.00;99.90;;;;;;4996203;28;38191;-84
2022/03/21 08:30:35;;;;;;;111.43;70.23;;;5.20;99.90;;;;;;4996013;28;46591;-85
2022/03/21 08:33:03;;;;;;;99.53;65.70;;;5.30;99.90;;;;;;4998063;28;39279;-84
2022/03/21 08:35:33;;;;;;;96.70;62.27;;;5.40;99.90;;;;;;4996053;28;48970;-84
2022/03/21 08:38:00;;;;;;;90.73;59.37;;;5.60;99.90;;;;;;4999885;28;37850;-84
2022/03/21 08:40:26;;;;;;;91.20;60.17;;;5.90;99.90;;;;;;4996475;28;36880;-83
2022/03/21 08:42:52;;;;;;;94.00;62.07;;;6.10;99.90;;;;;;4985552;28;38414;-83
2022/03/21 08:45:18;;;;;;;91.10;61.50;;;6.30;99.90;;;;;;4990142;28;38712;-83
2022/03/21 08:47:44;;;;;;;84.57;56.87;;;6.50;99.90;;;;;;4990930;28;38627;-80
2022/03/21 08:50:12;;;;;;;73.20;52.17;;;6.60;99.90;;;;;;4990197;28;38418;-83
2022/03/21 08:52:39;;;;;;;72.60;47.80;;;6.80;99.90;;;;;;4972224;28;36173;-83
2022/03/21 08:55:06;;;;;;;63.10;45.43;;;7.00;99.90;;;;;;4993979;28;39114;-83
2022/03/21 08:57:33;;;;;;;66.47;45.73;;;7.10;99.90;;;;;;4989203;28;38894;-83
2022/03/21 08:59:59;;;;;;;68.63;47.57;;;7.40;99.90;;;;;;4986939;28;37561;-83
2022/03/21 09:02:26;;;;;;;74.30;49.10;;;7.50;99.90;;;;;;4986260;28;37345;-81
2022/03/21 09:04:52;;;;;;;64.33;44.60;;;7.50;99.90;;;;;;4991037;28;39887;-83
2022/03/21 09:07:19;;;;;;;59.83;42.73;;;7.70;99.90;;;;;;4991955;28;38714;-82
2022/03/21 09:09:45;;;;;;;58.97;42.03;;;7.80;99.90;;;;;;4986972;28;38790;-82
2022/03/21 09:12:12;;;;;;;59.60;42.50;;;8.00;99.90;;;;;;4981431;28;37195;-82
2022/03/21 09:14:39;;;;;;;57.67;41.97;;;8.20;99.90;;;;;;4990026;28;38554;-83
2022/03/21 09:17:05;;;;;;;58.77;40.33;;;8.40;99.90;;;;;;4985669;28;38435;-80
2022/03/21 09:19:31;;;;;;;55.63;39.97;;;8.50;99.90;;;;;;4976176;28;38215;-79
2022/03/21 09:21:58;;;;;;;54.53;40.13;;;8.60;99.90;;;;;;4988430;28;37567;-80
2022/03/21 09:24:25;;;;;;;57.87;38.90;;;8.60;99.90;;;;;;4986276;28;37642;-80
2022/03/21 09:26:51;;;;;;;56.13;38.83;;;8.70;99.90;;;;;;4988358;28;38826;-80
2022/03/21 09:29:18;;;;;;;50.53;37.47;;;8.80;99.90;;;;;;4987188;28;37037;-80
2022/03/21 09:31:47;;;;;;;51.03;36.03;;;9.00;99.90;;;;;;4974673;28;37886;-81
2022/03/21 09:34:14;;;;;;;53.57;37.47;;;9.10;99.90;;;;;;4987537;28;38782;-80
2022/03/21 09:36:40;;;;;;;47.00;33.63;;;9.30;99.90;;;;;;4984824;28;38863;-80
2022/03/21 09:39:08;;;;;;;43.37;32.73;;;9.40;99.90;;;;;;4973569;28;37691;-80
2022/03/21 09:41:35;;;;;;;46.00;32.00;;;9.60;99.90;;;;;;4983559;28;36379;-81
2022/03/21 09:44:04;;;;;;;41.33;29.97;;;9.70;99.90;;;;;;4985086;28;39207;-81
2022/03/21 09:46:31;;;;;;;44.27;29.63;;;9.90;99.90;;;;;;4987833;28;48402;-81
2022/03/21 09:48:57;;;;;;;42.53;29.63;;;10.10;99.90;;;;;;4970423;28;38171;-80
2022/03/21 09:51:30;;;;;;;43.07;28.70;;;10.20;99.90;;;;;;4974914;28;38147;-82
2022/03/21 09:53:57;;;;;;;38.35;28.48;;;10.30;99.90;;;;;;4985699;28;40279;-80
2022/03/21 09:56:25;;;;;;;41.63;28.33;;;10.40;99.90;;;;;;4986996;28;38209;-80
2022/03/21 09:58:54;;;;;;;43.17;28.87;;;10.40;99.90;;;;;;4986132;28;37726;-81
2022/03/21 10:01:20;;;;;;;37.90;26.63;;;10.70;99.90;;;;;;4987707;28;38257;-80
2022/03/21 10:03:46;;;;;;;42.80;29.40;;;10.70;99.90;;;;;;4985420;28;38663;-79
2022/03/21 10:06:32;;;;;;;40.93;28.70;;;10.90;99.90;;;;;;4986646;28;38958;-80
2022/03/21 10:09:15;;;;;;;40.88;26.90;;;11.00;99.90;;;;;;4971332;28;37449;-81
2022/03/21 10:11:52;;;;;;;41.78;28.23;;;11.10;99.90;;;;;;4989550;28;47294;-81
2022/03/21 10:14:37;;;;;;;40.77;28.17;;;11.30;99.90;;;;;;4988887;28;38919;-80
2022/03/21 10:17:14;;;;;;;36.00;26.98;;;11.40;99.90;;;;;;4989432;28;37558;-81
2022/03/21 10:19:47;;;;;;;38.45;26.52;;;11.50;99.90;;;;;;4987887;28;38308;-80
2022/03/21 10:22:19;;;;;;;35.80;24.92;;;11.50;99.90;;;;;;4988169;28;38105;-80
2022/03/21 10:24:50;;;;;;;38.75;25.55;;;11.70;99.90;;;;;;4987938;28;39736;-80
2022/03/21 10:27:36;;;;;;;35.20;24.25;;;11.80;99.90;;;;;;4987192;28;39559;-80
2022/03/21 10:30:13;;;;;;;40.45;24.73;;;12.00;99.90;;;;;;4980594;28;37640;-81
2022/03/21 10:32:44;;;;;;;33.35;23.80;;;12.20;99.90;;;;;;4988464;28;37323;-80
2022/03/21 10:35:16;;;;;;;34.55;22.95;;;12.50;99.90;;;;;;4988418;28;39731;-79
2022/03/21 10:37:51;;;;;;;30.10;20.67;;;12.70;99.90;;;;;;4990475;28;38471;-82
2022/03/21 10:40:19;;;;;;;29.80;20.38;;;12.90;99.90;;;;;;4985880;28;39265;-83
2022/03/21 10:43:16;;;;;;;28.75;19.75;;;13.00;99.90;;;;;;4985177;28;39248;-82
2022/03/21 10:45:45;;;;;;;25.73;18.80;;;13.10;99.90;;;;;;4969928;28;48941;-79
2022/03/21 10:48:20;;;;;;;26.25;18.95;;;13.20;99.90;;;;;;4972450;28;38744;-80
2022/03/21 10:50:51;;;;;;;28.60;19.65;;;13.10;99.90;;;;;;4982810;28;38122;-80
2022/03/21 10:53:21;;;;;;;26.42;19.40;;;13.30;99.90;;;;;;4987502;28;37137;-80
2022/03/21 10:55:50;;;;;;;28.08;19.58;;;13.50;99.90;;;;;;4985752;28;38853;-79
2022/03/21 10:58:31;;;;;;;25.52;18.10;;;13.80;99.90;;;;;;4986979;28;38985;-79
2022/03/21 11:01:12;;;;;;;25.33;17.35;;;13.90;99.90;;;;;;4986601;28;38186;-80
2022/03/21 11:03:41;;;;;;;20.75;17.13;;;14.20;99.90;;;;;;4960520;28;48502;-79
2022/03/21 11:06:09;;;;;;;20.80;16.02;;;14.40;99.90;;;;;;4988875;28;38949;-79
2022/03/21 11:08:36;;;;;;;24.92;17.75;;;14.50;99.90;;;;;;4987662;28;39826;-79
2022/03/21 11:11:07;;;;;;;23.73;16.60;;;14.70;99.90;;;;;;4987431;28;37567;-79
2022/03/21 11:13:36;;;;;;;20.48;15.77;;;14.50;99.90;;;;;;4981543;28;37422;-80
2022/03/21 11:16:03;;;;;;;23.35;15.85;;;14.70;99.90;;;;;;4969740;28;39581;-79
2022/03/21 11:18:30;;;;;;;21.67;14.60;;;14.70;99.90;;;;;;4970710;28;39662;-80
2022/03/21 11:20:57;;;;;;;18.52;14.27;;;14.90;99.90;;;;;;4986636;28;37933;-79
2022/03/21 11:23:25;;;;;;;18.83;14.40;;;15.00;99.90;;;;;;4984939;28;38920;-79
2022/03/21 11:26:07;;;;;;;18.70;14.30;;;14.80;99.90;;;;;;4987659;28;40666;-78
2022/03/21 11:29:05;;;;;;;23.17;14.23;;;14.60;99.90;;;;;;4989850;28;48903;-80
2022/03/21 11:32:00;;;;;;;20.95;14.88;;;14.50;99.90;;;;;;4986254;28;48532;-79
2022/03/21 11:34:49;;;;;;;21.73;14.70;;;14.40;99.90;;;;;;4987080;28;38724;-79
2022/03/21 11:37:32;;;;;;;19.55;14.32;;;14.70;99.90;;;;;;4968605;28;39642;-80
2022/03/21 11:40:29;;;;;;;21.25;13.93;;;15.00;99.90;;;;;;4980818;28;38893;-79
2022/03/21 11:43:17;;;;;;;26.38;15.30;;;15.20;99.90;;;;;;4984638;28;48945;-79
2022/03/21 11:45:55;;;;;;;21.13;14.63;;;15.30;99.90;;;;;;4984423;28;48671;-79
2022/03/21 11:48:24;;;;;;;21.13;14.48;;;15.10;99.90;;;;;;4985039;28;38387;-79
2022/03/21 11:51:11;;;;;;;24.38;14.65;;;15.30;99.90;;;;;;4984160;28;38355;-79
2022/03/21 11:53:49;;;;;;;21.25;15.68;;;15.60;99.90;;;;;;4978130;28;48240;-82
2022/03/21 11:56:17;;;;;;;27.67;15.27;;;15.40;99.90;;;;;;4961989;28;37364;-78
2022/03/21 11:58:45;;;;;;;22.25;15.25;;;15.40;99.90;;;;;;4960383;28;40382;-80
2022/03/21 12:01:20;;;;;;;24.63;16.00;;;15.10;99.90;;;;;;4968817;28;37865;-80
2022/03/21 12:03:46;;;;;;;20.70;15.75;;;15.00;99.90;;;;;;4973489;28;38686;-80
2022/03/21 12:06:32;;;;;;;20.45;16.23;;;15.10;99.90;;;;;;4982453;28;38379;-79
2022/03/21 12:08:59;;;;;;;19.02;14.60;;;15.20;99.90;;;;;;4966862;28;40142;-79
2022/03/21 12:11:37;;;;;;;19.38;14.75;;;15.50;99.90;;;;;;4965865;28;38589;-80
2022/03/21 12:14:22;;;;;;;24.83;16.67;;;15.50;99.90;;;;;;4960721;28;38608;-79
2022/03/21 12:17:14;;;;;;;22.10;15.75;;;15.40;99.90;;;;;;4963775;28;37471;-78
2022/03/21 12:19:57;;;;;;;21.57;16.17;;;15.70;99.90;;;;;;4963300;28;48542;-78
2022/03/21 12:22:29;;;;;;;22.75;16.77;;;15.80;99.90;;;;;;4966806;28;39344;-79
2022/03/21 12:25:10;;;;;;;22.65;15.88;;;15.80;99.90;;;;;;4963594;28;38484;-78
2022/03/21 12:27:52;;;;;;;25.38;17.45;;;15.70;99.90;;;;;;4961802;28;50492;-79
2022/03/21 12:30:20;;;;;;;23.83;16.77;;;15.40;99.90;;;;;;4974410;28;40881;-78
2022/03/21 12:33:09;;;;;;;22.77;16.15;;;15.60;99.90;;;;;;4962009;28;38028;-79
2022/03/21 12:35:38;;;;;;;23.67;16.67;;;15.80;99.90;;;;;;4956798;28;47138;-79
2022/03/21 12:38:09;;;;;;;23.55;16.17;;;15.80;99.90;;;;;;4962316;28;37318;-80
2022/03/21 12:41:00;;;;;;;22.55;15.48;;;15.90;99.90;;;;;;4961787;28;39212;-78
2022/03/21 12:43:28;;;;;;;22.13;15.70;;;16.20;99.90;;;;;;4960222;28;38603;-78
2022/03/21 12:46:06;;;;;;;24.40;16.30;;;16.70;99.90;;;;;;4962206;28;37777;-78
2022/03/21 12:48:41;;;;;;;26.73;15.90;;;17.10;99.90;;;;;;4965312;28;48739;-79
2022/03/21 12:51:09;;;;;;;25.50;17.67;;;16.80;99.90;;;;;;4965758;28;38930;-78
2022/03/21 12:53:47;;;;;;;22.50;15.57;;;16.90;99.90;;;;;;4964212;28;38844;-77
2022/03/21 12:56:16;;;;;;;21.17;15.35;;;16.70;99.90;;;;;;4974496;28;39777;-77
2022/03/21 12:58:45;;;;;;;21.85;16.27;;;17.20;99.90;;;;;;4985450;28;20089;-78